sensor_id;sensor_type;location;lat;lon;timestamp;P1;durP1;ratioP1;P2;durP2;ratioP2
46411;SDS011;32113;42.012;24.870;2022-08-21T00:01:59;13.55;;;6.30;;
46411;SDS011;32113;42.012;24.870;2022-08-21T00:04:25;14.25;;;6.80;;
46411;SDS011;32113;42.012;24.870;2022-08-21T00:06:50;18.15;;;7.60;;
46411;SDS011;32113;42.012;24.870;2022-08-21T00:09:16;12.45;;;7.00;;
46411;SDS011;32113;42.012;24.870;2022-08-21T00:11:43;16.60;;;7.97;;
46411;SDS011;32113;42.012;24.870;2022-08-21T00:14:13;14.02;;;7.05;;
46411;SDS011;32113;42.012;24.870;2022-08-21T00:16:39;13.82;;;6.03;;
46411;SDS011;32113;42.012;24.870;2022-08-21T00:19:05;13.15;;;6.70;;
46411;SDS011;32113;42.012;24.870;2022-08-21T00:21:31;14.70;;;6.57;;
46411;SDS011;32113;42.012;24.870;2022-08-21T00:23:57;12.55;;;5.43;;
46411;SDS011;32113;42.012;24.870;2022-08-21T00:26:23;16.48;;;5.43;;
46411;SDS011;32113;42.012;24.870;2022-08-21T00:28:48;15.90;;;6.47;;
46411;SDS011;32113;42.012;24.870;2022-08-21T00:31:14;13.35;;;6.03;;
46411;SDS011;32113;42.012;24.870;2022-08-21T00:33:40;17.00;;;6.35;;
46411;SDS011;32113;42.012;24.870;2022-08-21T00:36:06;13.75;;;5.93;;
46411;SDS011;32113;42.012;24.870;2022-08-21T00:38:32;12.13;;;6.30;;
46411;SDS011;32113;42.012;24.870;2022-08-21T00:40:58;12.48;;;5.68;;
46411;SDS011;32113;42.012;24.870;2022-08-21T00:45:55;12.75;;;5.72;;
46411;SDS011;32113;42.012;24.870;2022-08-21T00:48:21;11.63;;;6.30;;
46411;SDS011;32113;42.012;24.870;2022-08-21T00:51:08;11.60;;;5.78;;
46411;SDS011;32113;42.012;24.870;2022-08-21T00:53:48;14.98;;;7.30;;
46411;SDS011;32113;42.012;24.870;2022-08-21T00:56:17;13.35;;;6.75;;
46411;SDS011;32113;42.012;24.870;2022-08-21T00:58:44;18.25;;;6.55;;
46411;SDS011;32113;42.012;24.870;2022-08-21T01:01:10;14.43;;;6.60;;
46411;SDS011;32113;42.012;24.870;2022-08-21T01:03:35;9.82;;;5.68;;
46411;SDS011;32113;42.012;24.870;2022-08-21T01:06:02;11.85;;;5.93;;
46411;SDS011;32113;42.012;24.870;2022-08-21T01:08:29;14.95;;;6.03;;
46411;SDS011;32113;42.012;24.870;2022-08-21T01:10:55;13.10;;;6.10;;
46411;SDS011;32113;42.012;24.870;2022-08-21T01:13:21;18.27;;;7.57;;
46411;SDS011;32113;42.012;24.870;2022-08-21T01:18:16;11.07;;;6.00;;
46411;SDS011;32113;42.012;24.870;2022-08-21T01:20:43;11.00;;;6.47;;
46411;SDS011;32113;42.012;24.870;2022-08-21T01:23:11;12.15;;;6.25;;
46411;SDS011;32113;42.012;24.870;2022-08-21T01:25:37;15.95;;;6.57;;
46411;SDS011;32113;42.012;24.870;2022-08-21T01:28:21;13.52;;;6.78;;
46411;SDS011;32113;42.012;24.870;2022-08-21T01:30:47;13.98;;;6.95;;
46411;SDS011;32113;42.012;24.870;2022-08-21T01:33:15;10.95;;;6.10;;
46411;SDS011;32113;42.012;24.870;2022-08-21T01:35:42;15.20;;;6.57;;
46411;SDS011;32113;42.012;24.870;2022-08-21T01:38:08;11.82;;;6.43;;
46411;SDS011;32113;42.012;24.870;2022-08-21T01:40:34;10.75;;;6.63;;
46411;SDS011;32113;42.012;24.870;2022-08-21T01:42:59;14.60;;;7.35;;
46411;SDS011;32113;42.012;24.870;2022-08-21T01:45:25;14.90;;;7.32;;
46411;SDS011;32113;42.012;24.870;2022-08-21T01:47:50;15.13;;;7.25;;
46411;SDS011;32113;42.012;24.870;2022-08-21T01:50:18;11.98;;;7.03;;
46411;SDS011;32113;42.012;24.870;2022-08-21T01:52:45;10.82;;;6.68;;
46411;SDS011;32113;42.012;24.870;2022-08-21T01:55:12;13.82;;;7.13;;
46411;SDS011;32113;42.012;24.870;2022-08-21T01:57:39;15.48;;;7.22;;
46411;SDS011;32113;42.012;24.870;2022-08-21T02:00:05;16.10;;;8.10;;
46411;SDS011;32113;42.012;24.870;2022-08-21T02:02:33;10.90;;;6.93;;
46411;SDS011;32113;42.012;24.870;2022-08-21T02:04:59;13.45;;;7.00;;
46411;SDS011;32113;42.012;24.870;2022-08-21T02:07:24;16.33;;;7.57;;
46411;SDS011;32113;42.012;24.870;2022-08-21T02:09:50;17.98;;;7.55;;
46411;SDS011;32113;42.012;24.870;2022-08-21T02:12:15;16.63;;;7.78;;
46411;SDS011;32113;42.012;24.870;2022-08-21T02:14:41;12.02;;;7.28;;
46411;SDS011;32113;42.012;24.870;2022-08-21T02:17:06;13.48;;;7.30;;
46411;SDS011;32113;42.012;24.870;2022-08-21T02:19:31;16.67;;;7.68;;
46411;SDS011;32113;42.012;24.870;2022-08-21T02:21:57;10.30;;;7.85;;
46411;SDS011;32113;42.012;24.870;2022-08-21T02:24:22;12.35;;;7.35;;
46411;SDS011;32113;42.012;24.870;2022-08-21T02:26:47;15.98;;;7.72;;
46411;SDS011;32113;42.012;24.870;2022-08-21T02:29:13;13.30;;;7.80;;
46411;SDS011;32113;42.012;24.870;2022-08-21T02:31:38;13.65;;;7.30;;
46411;SDS011;32113;42.012;24.870;2022-08-21T02:34:04;13.80;;;8.07;;
46411;SDS011;32113;42.012;24.870;2022-08-21T02:36:30;14.38;;;7.43;;
46411;SDS011;32113;42.012;24.870;2022-08-21T02:38:56;10.73;;;6.90;;
46411;SDS011;32113;42.012;24.870;2022-08-21T02:41:21;12.82;;;7.20;;
46411;SDS011;32113;42.012;24.870;2022-08-21T02:43:47;14.43;;;7.72;;
46411;SDS011;32113;42.012;24.870;2022-08-21T02:46:14;16.05;;;7.38;;
46411;SDS011;32113;42.012;24.870;2022-08-21T02:48:41;15.70;;;7.93;;
46411;SDS011;32113;42.012;24.870;2022-08-21T02:51:11;18.35;;;8.02;;
46411;SDS011;32113;42.012;24.870;2022-08-21T02:53:40;16.13;;;8.10;;
46411;SDS011;32113;42.012;24.870;2022-08-21T02:56:06;12.80;;;8.55;;
46411;SDS011;32113;42.012;24.870;2022-08-21T02:58:37;16.83;;;8.73;;
46411;SDS011;32113;42.012;24.870;2022-08-21T03:01:05;14.88;;;7.70;;
46411;SDS011;32113;42.012;24.870;2022-08-21T03:03:34;16.25;;;8.32;;
46411;SDS011;32113;42.012;24.870;2022-08-21T03:06:01;14.30;;;8.45;;
46411;SDS011;32113;42.012;24.870;2022-08-21T03:08:28;16.85;;;8.23;;
46411;SDS011;32113;42.012;24.870;2022-08-21T03:10:53;13.85;;;8.23;;
46411;SDS011;32113;42.012;24.870;2022-08-21T03:13:20;14.80;;;7.20;;
46411;SDS011;32113;42.012;24.870;2022-08-21T03:15:46;13.20;;;8.18;;
46411;SDS011;32113;42.012;24.870;2022-08-21T03:18:11;15.35;;;8.68;;
46411;SDS011;32113;42.012;24.870;2022-08-21T03:20:38;14.25;;;8.40;;
46411;SDS011;32113;42.012;24.870;2022-08-21T03:23:06;17.85;;;8.95;;
46411;SDS011;32113;42.012;24.870;2022-08-21T03:25:32;17.95;;;9.65;;
46411;SDS011;32113;42.012;24.870;2022-08-21T03:27:59;15.00;;;8.70;;
46411;SDS011;32113;42.012;24.870;2022-08-21T03:30:25;13.32;;;7.55;;
46411;SDS011;32113;42.012;24.870;2022-08-21T03:32:51;13.50;;;6.95;;
46411;SDS011;32113;42.012;24.870;2022-08-21T03:35:18;12.52;;;7.40;;
46411;SDS011;32113;42.012;24.870;2022-08-21T03:37:44;14.35;;;6.80;;
46411;SDS011;32113;42.012;24.870;2022-08-21T03:40:11;10.38;;;7.10;;
46411;SDS011;32113;42.012;24.870;2022-08-21T03:42:38;15.43;;;7.35;;
46411;SDS011;32113;42.012;24.870;2022-08-21T03:45:04;13.60;;;8.27;;
46411;SDS011;32113;42.012;24.870;2022-08-21T03:47:31;16.80;;;8.35;;
46411;SDS011;32113;42.012;24.870;2022-08-21T03:49:56;20.75;;;9.43;;
46411;SDS011;32113;42.012;24.870;2022-08-21T03:52:22;21.92;;;8.85;;
46411;SDS011;32113;42.012;24.870;2022-08-21T03:54:47;16.05;;;8.55;;
46411;SDS011;32113;42.012;24.870;2022-08-21T03:57:13;15.38;;;8.57;;
46411;SDS011;32113;42.012;24.870;2022-08-21T03:59:38;13.00;;;7.30;;
46411;SDS011;32113;42.012;24.870;2022-08-21T04:02:05;16.80;;;7.82;;
46411;SDS011;32113;42.012;24.870;2022-08-21T04:04:32;14.27;;;7.32;;
46411;SDS011;32113;42.012;24.870;2022-08-21T04:06:58;14.32;;;6.38;;
46411;SDS011;32113;42.012;24.870;2022-08-21T04:09:24;13.50;;;6.22;;
46411;SDS011;32113;42.012;24.870;2022-08-21T04:11:49;12.30;;;5.80;;
46411;SDS011;32113;42.012;24.870;2022-08-21T04:14:15;15.10;;;6.38;;
46411;SDS011;32113;42.012;24.870;2022-08-21T04:16:42;15.65;;;6.07;;
46411;SDS011;32113;42.012;24.870;2022-08-21T04:19:08;12.23;;;6.07;;
46411;SDS011;32113;42.012;24.870;2022-08-21T04:21:35;11.05;;;6.07;;
46411;SDS011;32113;42.012;24.870;2022-08-21T04:24:02;14.02;;;6.80;;
46411;SDS011;32113;42.012;24.870;2022-08-21T04:26:28;16.98;;;6.40;;
46411;SDS011;32113;42.012;24.870;2022-08-21T04:28:55;16.55;;;6.68;;
46411;SDS011;32113;42.012;24.870;2022-08-21T04:31:22;15.68;;;7.00;;
46411;SDS011;32113;42.012;24.870;2022-08-21T04:33:48;14.98;;;6.53;;
46411;SDS011;32113;42.012;24.870;2022-08-21T04:36:13;15.95;;;7.85;;
46411;SDS011;32113;42.012;24.870;2022-08-21T04:38:38;14.32;;;7.25;;
46411;SDS011;32113;42.012;24.870;2022-08-21T04:41:04;13.32;;;6.97;;
46411;SDS011;32113;42.012;24.870;2022-08-21T04:43:30;12.98;;;7.13;;
46411;SDS011;32113;42.012;24.870;2022-08-21T04:45:55;12.93;;;7.47;;
46411;SDS011;32113;42.012;24.870;2022-08-21T04:48:21;17.65;;;8.30;;
46411;SDS011;32113;42.012;24.870;2022-08-21T04:53:26;11.38;;;7.03;;
46411;SDS011;32113;42.012;24.870;2022-08-21T04:56:04;15.15;;;7.85;;
46411;SDS011;32113;42.012;24.870;2022-08-21T04:58:34;13.05;;;7.18;;
46411;SDS011;32113;42.012;24.870;2022-08-21T05:01:02;16.60;;;7.70;;
46411;SDS011;32113;42.012;24.870;2022-08-21T05:03:30;17.45;;;7.47;;
46411;SDS011;32113;42.012;24.870;2022-08-21T05:05:58;10.80;;;7.25;;
46411;SDS011;32113;42.012;24.870;2022-08-21T05:08:25;15.25;;;7.82;;
46411;SDS011;32113;42.012;24.870;2022-08-21T05:10:51;17.20;;;7.85;;
46411;SDS011;32113;42.012;24.870;2022-08-21T05:13:17;11.45;;;6.90;;
46411;SDS011;32113;42.012;24.870;2022-08-21T05:15:43;14.07;;;7.32;;
46411;SDS011;32113;42.012;24.870;2022-08-21T05:18:08;11.80;;;7.68;;
46411;SDS011;32113;42.012;24.870;2022-08-21T05:20:34;15.50;;;7.03;;
46411;SDS011;32113;42.012;24.870;2022-08-21T05:23:00;13.13;;;7.35;;
46411;SDS011;32113;42.012;24.870;2022-08-21T05:25:26;13.93;;;7.60;;
46411;SDS011;32113;42.012;24.870;2022-08-21T05:27:52;16.00;;;7.80;;
46411;SDS011;32113;42.012;24.870;2022-08-21T05:30:18;15.02;;;7.45;;
46411;SDS011;32113;42.012;24.870;2022-08-21T05:32:45;15.10;;;7.80;;
46411;SDS011;32113;42.012;24.870;2022-08-21T05:35:11;14.38;;;7.70;;
46411;SDS011;32113;42.012;24.870;2022-08-21T05:37:36;13.88;;;6.72;;
46411;SDS011;32113;42.012;24.870;2022-08-21T05:40:03;12.23;;;7.55;;
46411;SDS011;32113;42.012;24.870;2022-08-21T05:42:29;14.25;;;8.93;;
46411;SDS011;32113;42.012;24.870;2022-08-21T05:44:55;12.60;;;8.02;;
46411;SDS011;32113;42.012;24.870;2022-08-21T05:47:20;17.52;;;8.93;;
46411;SDS011;32113;42.012;24.870;2022-08-21T05:49:46;16.05;;;8.88;;
46411;SDS011;32113;42.012;24.870;2022-08-21T05:52:11;13.85;;;9.05;;
46411;SDS011;32113;42.012;24.870;2022-08-21T05:54:37;14.77;;;8.70;;
46411;SDS011;32113;42.012;24.870;2022-08-21T05:57:03;13.93;;;8.55;;
46411;SDS011;32113;42.012;24.870;2022-08-21T05:59:28;15.82;;;8.95;;
46411;SDS011;32113;42.012;24.870;2022-08-21T06:01:54;18.10;;;8.82;;
46411;SDS011;32113;42.012;24.870;2022-08-21T06:04:19;15.73;;;8.73;;
46411;SDS011;32113;42.012;24.870;2022-08-21T06:06:45;17.95;;;9.80;;
46411;SDS011;32113;42.012;24.870;2022-08-21T06:09:11;15.63;;;7.97;;
46411;SDS011;32113;42.012;24.870;2022-08-21T06:11:37;18.35;;;7.40;;
46411;SDS011;32113;42.012;24.870;2022-08-21T06:14:02;12.32;;;6.32;;
46411;SDS011;32113;42.012;24.870;2022-08-21T06:16:29;16.25;;;6.22;;
46411;SDS011;32113;42.012;24.870;2022-08-21T06:18:54;14.90;;;6.85;;
46411;SDS011;32113;42.012;24.870;2022-08-21T06:21:20;17.65;;;6.93;;
46411;SDS011;32113;42.012;24.870;2022-08-21T06:23:45;12.00;;;6.22;;
46411;SDS011;32113;42.012;24.870;2022-08-21T06:26:11;20.38;;;6.70;;
46411;SDS011;32113;42.012;24.870;2022-08-21T06:28:38;9.82;;;5.40;;
46411;SDS011;32113;42.012;24.870;2022-08-21T06:31:11;13.18;;;6.32;;
46411;SDS011;32113;42.012;24.870;2022-08-21T06:33:41;14.80;;;6.47;;
46411;SDS011;32113;42.012;24.870;2022-08-21T06:36:06;14.43;;;6.53;;
46411;SDS011;32113;42.012;24.870;2022-08-21T06:38:32;16.70;;;6.45;;
46411;SDS011;32113;42.012;24.870;2022-08-21T06:40:58;14.73;;;6.68;;
46411;SDS011;32113;42.012;24.870;2022-08-21T06:43:23;19.55;;;6.43;;
46411;SDS011;32113;42.012;24.870;2022-08-21T06:45:49;12.48;;;5.97;;
46411;SDS011;32113;42.012;24.870;2022-08-21T06:48:14;14.07;;;6.05;;
46411;SDS011;32113;42.012;24.870;2022-08-21T06:50:39;15.80;;;6.65;;
46411;SDS011;32113;42.012;24.870;2022-08-21T06:53:09;11.32;;;5.80;;
46411;SDS011;32113;42.012;24.870;2022-08-21T06:55:37;12.75;;;6.40;;
46411;SDS011;32113;42.012;24.870;2022-08-21T06:58:04;11.13;;;5.72;;
46411;SDS011;32113;42.012;24.870;2022-08-21T07:00:30;14.00;;;6.07;;
46411;SDS011;32113;42.012;24.870;2022-08-21T07:02:55;16.25;;;5.93;;
46411;SDS011;32113;42.012;24.870;2022-08-21T07:05:21;16.52;;;5.35;;
46411;SDS011;32113;42.012;24.870;2022-08-21T07:07:49;11.88;;;5.93;;
46411;SDS011;32113;42.012;24.870;2022-08-21T07:10:14;16.80;;;7.50;;
46411;SDS011;32113;42.012;24.870;2022-08-21T07:12:40;12.13;;;6.43;;
46411;SDS011;32113;42.012;24.870;2022-08-21T07:15:06;16.80;;;7.03;;
46411;SDS011;32113;42.012;24.870;2022-08-21T07:17:32;14.23;;;6.90;;
46411;SDS011;32113;42.012;24.870;2022-08-21T07:19:57;14.68;;;7.15;;
46411;SDS011;32113;42.012;24.870;2022-08-21T07:22:23;17.45;;;6.82;;
46411;SDS011;32113;42.012;24.870;2022-08-21T07:24:48;16.10;;;6.32;;
46411;SDS011;32113;42.012;24.870;2022-08-21T07:27:14;14.73;;;7.13;;
46411;SDS011;32113;42.012;24.870;2022-08-21T07:29:39;10.63;;;6.05;;
46411;SDS011;32113;42.012;24.870;2022-08-21T07:32:06;15.32;;;7.20;;
46411;SDS011;32113;42.012;24.870;2022-08-21T07:34:32;16.30;;;6.70;;
46411;SDS011;32113;42.012;24.870;2022-08-21T07:36:57;10.82;;;7.53;;
46411;SDS011;32113;42.012;24.870;2022-08-21T07:39:23;15.90;;;6.80;;
46411;SDS011;32113;42.012;24.870;2022-08-21T07:41:49;11.35;;;6.93;;
46411;SDS011;32113;42.012;24.870;2022-08-21T07:44:15;15.95;;;6.95;;
46411;SDS011;32113;42.012;24.870;2022-08-21T07:46:40;10.23;;;6.07;;
46411;SDS011;32113;42.012;24.870;2022-08-21T07:49:06;12.00;;;6.20;;
46411;SDS011;32113;42.012;24.870;2022-08-21T07:51:31;11.63;;;6.18;;
46411;SDS011;32113;42.012;24.870;2022-08-21T07:53:58;13.90;;;6.18;;
46411;SDS011;32113;42.012;24.870;2022-08-21T07:56:24;11.55;;;6.10;;
46411;SDS011;32113;42.012;24.870;2022-08-21T07:58:51;11.83;;;5.93;;
46411;SDS011;32113;42.012;24.870;2022-08-21T08:01:17;12.05;;;6.03;;
46411;SDS011;32113;42.012;24.870;2022-08-21T08:03:43;11.93;;;5.35;;
46411;SDS011;32113;42.012;24.870;2022-08-21T08:06:10;11.82;;;4.93;;
46411;SDS011;32113;42.012;24.870;2022-08-21T08:08:40;11.65;;;5.82;;
46411;SDS011;32113;42.012;24.870;2022-08-21T08:11:07;16.45;;;6.20;;
46411;SDS011;32113;42.012;24.870;2022-08-21T08:13:49;12.80;;;6.03;;
46411;SDS011;32113;42.012;24.870;2022-08-21T08:16:15;11.93;;;5.75;;
46411;SDS011;32113;42.012;24.870;2022-08-21T08:18:42;13.70;;;6.03;;
46411;SDS011;32113;42.012;24.870;2022-08-21T08:21:10;14.68;;;6.63;;
46411;SDS011;32113;42.012;24.870;2022-08-21T08:23:36;13.23;;;5.60;;
46411;SDS011;32113;42.012;24.870;2022-08-21T08:26:01;12.75;;;7.00;;
46411;SDS011;32113;42.012;24.870;2022-08-21T08:28:30;15.18;;;8.07;;
46411;SDS011;32113;42.012;24.870;2022-08-21T08:30:57;15.75;;;6.60;;
46411;SDS011;32113;42.012;24.870;2022-08-21T08:33:22;16.23;;;7.72;;
46411;SDS011;32113;42.012;24.870;2022-08-21T08:35:49;14.88;;;7.05;;
46411;SDS011;32113;42.012;24.870;2022-08-21T08:38:16;15.02;;;7.70;;
46411;SDS011;32113;42.012;24.870;2022-08-21T08:43:13;18.17;;;9.40;;
46411;SDS011;32113;42.012;24.870;2022-08-21T08:45:41;16.95;;;8.27;;
46411;SDS011;32113;42.012;24.870;2022-08-21T08:48:12;17.85;;;9.60;;
46411;SDS011;32113;42.012;24.870;2022-08-21T08:50:44;21.13;;;9.52;;
46411;SDS011;32113;42.012;24.870;2022-08-21T08:53:23;22.75;;;9.68;;
46411;SDS011;32113;42.012;24.870;2022-08-21T08:55:52;22.10;;;9.80;;
46411;SDS011;32113;42.012;24.870;2022-08-21T08:58:22;25.20;;;11.05;;
46411;SDS011;32113;42.012;24.870;2022-08-21T09:00:51;16.55;;;8.75;;
46411;SDS011;32113;42.012;24.870;2022-08-21T09:03:18;21.58;;;9.30;;
46411;SDS011;32113;42.012;24.870;2022-08-21T09:05:48;15.38;;;8.80;;
46411;SDS011;32113;42.012;24.870;2022-08-21T09:08:27;11.85;;;7.85;;
46411;SDS011;32113;42.012;24.870;2022-08-21T09:26:27;20.80;;;7.55;;
46411;SDS011;32113;42.012;24.870;2022-08-21T09:29:09;21.17;;;7.68;;
46411;SDS011;32113;42.012;24.870;2022-08-21T09:31:36;16.25;;;7.07;;
46411;SDS011;32113;42.012;24.870;2022-08-21T09:34:08;12.45;;;6.85;;
46411;SDS011;32113;42.012;24.870;2022-08-21T09:36:40;15.23;;;6.85;;
46411;SDS011;32113;42.012;24.870;2022-08-21T09:39:09;16.05;;;7.18;;
46411;SDS011;32113;42.012;24.870;2022-08-21T09:41:37;16.38;;;7.70;;
46411;SDS011;32113;42.012;24.870;2022-08-21T09:44:04;12.52;;;6.80;;
46411;SDS011;32113;42.012;24.870;2022-08-21T09:48:58;19.65;;;7.22;;
46411;SDS011;32113;42.012;24.870;2022-08-21T09:51:27;21.73;;;9.23;;
46411;SDS011;32113;42.012;24.870;2022-08-21T09:53:56;23.08;;;9.10;;
46411;SDS011;32113;42.012;24.870;2022-08-21T09:56:38;22.45;;;10.20;;
46411;SDS011;32113;42.012;24.870;2022-08-21T09:59:43;26.77;;;12.83;;
46411;SDS011;32113;42.012;24.870;2022-08-21T10:05:00;17.23;;;9.73;;
46411;SDS011;32113;42.012;24.870;2022-08-21T10:07:29;15.48;;;10.15;;
46411;SDS011;32113;42.012;24.870;2022-08-21T10:18:24;18.88;;;10.13;;
46411;SDS011;32113;42.012;24.870;2022-08-21T10:21:00;18.90;;;9.25;;
46411;SDS011;32113;42.012;24.870;2022-08-21T10:32:04;15.70;;;10.30;;
46411;SDS011;32113;42.012;24.870;2022-08-21T10:40:24;21.75;;;11.02;;
46411;SDS011;32113;42.012;24.870;2022-08-21T10:43:15;20.35;;;10.40;;
46411;SDS011;32113;42.012;24.870;2022-08-21T10:48:39;15.00;;;10.25;;
46411;SDS011;32113;42.012;24.870;2022-08-21T10:51:10;26.98;;;10.40;;
46411;SDS011;32113;42.012;24.870;2022-08-21T10:56:38;14.13;;;10.07;;
46411;SDS011;32113;42.012;24.870;2022-08-21T11:07:35;17.77;;;10.17;;
46411;SDS011;32113;42.012;24.870;2022-08-21T11:10:04;16.23;;;9.68;;
46411;SDS011;32113;42.012;24.870;2022-08-21T11:12:43;16.02;;;9.93;;
46411;SDS011;32113;42.012;24.870;2022-08-21T11:23:21;22.15;;;10.50;;
46411;SDS011;32113;42.012;24.870;2022-08-21T11:26:09;17.42;;;10.68;;
46411;SDS011;32113;42.012;24.870;2022-08-21T11:28:43;15.07;;;9.82;;
46411;SDS011;32113;42.012;24.870;2022-08-21T11:31:22;19.88;;;10.32;;
46411;SDS011;32113;42.012;24.870;2022-08-21T11:37:02;25.70;;;11.40;;
46411;SDS011;32113;42.012;24.870;2022-08-21T11:39:48;15.50;;;10.55;;
46411;SDS011;32113;42.012;24.870;2022-08-21T11:42:30;19.75;;;10.50;;
46411;SDS011;32113;42.012;24.870;2022-08-21T11:50:37;20.67;;;9.27;;
46411;SDS011;32113;42.012;24.870;2022-08-21T11:55:47;20.50;;;10.35;;
46411;SDS011;32113;42.012;24.870;2022-08-21T12:00:43;12.73;;;9.10;;
46411;SDS011;32113;42.012;24.870;2022-08-21T12:03:29;15.45;;;10.60;;
46411;SDS011;32113;42.012;24.870;2022-08-21T12:06:00;17.98;;;10.63;;
46411;SDS011;32113;42.012;24.870;2022-08-21T12:08:31;16.52;;;9.95;;
46411;SDS011;32113;42.012;24.870;2022-08-21T12:13:29;16.52;;;9.60;;
46411;SDS011;32113;42.012;24.870;2022-08-21T12:16:05;17.50;;;10.15;;
46411;SDS011;32113;42.012;24.870;2022-08-21T12:18:36;20.58;;;11.50;;
46411;SDS011;32113;42.012;24.870;2022-08-21T12:24:02;19.48;;;11.82;;
46411;SDS011;32113;42.012;24.870;2022-08-21T12:26:35;20.27;;;12.02;;
46411;SDS011;32113;42.012;24.870;2022-08-21T12:31:50;19.40;;;12.00;;
46411;SDS011;32113;42.012;24.870;2022-08-21T12:34:18;19.88;;;11.43;;
46411;SDS011;32113;42.012;24.870;2022-08-21T12:36:49;18.80;;;11.63;;
46411;SDS011;32113;42.012;24.870;2022-08-21T12:39:22;21.23;;;12.07;;
46411;SDS011;32113;42.012;24.870;2022-08-21T12:42:17;20.77;;;12.45;;
46411;SDS011;32113;42.012;24.870;2022-08-21T12:44:46;19.90;;;12.35;;
46411;SDS011;32113;42.012;24.870;2022-08-21T12:50:13;24.02;;;13.57;;
46411;SDS011;32113;42.012;24.870;2022-08-21T12:55:33;20.23;;;11.18;;
46411;SDS011;32113;42.012;24.870;2022-08-21T12:57:59;18.70;;;12.10;;
46411;SDS011;32113;42.012;24.870;2022-08-21T13:00:25;17.15;;;12.27;;
46411;SDS011;32113;42.012;24.870;2022-08-21T13:02:53;23.15;;;12.02;;
46411;SDS011;32113;42.012;24.870;2022-08-21T13:05:32;22.10;;;12.98;;
46411;SDS011;32113;42.012;24.870;2022-08-21T13:07:59;18.00;;;10.98;;
46411;SDS011;32113;42.012;24.870;2022-08-21T13:10:31;21.08;;;11.85;;
46411;SDS011;32113;42.012;24.870;2022-08-21T13:15:29;21.00;;;12.43;;
46411;SDS011;32113;42.012;24.870;2022-08-21T13:17:57;23.50;;;11.88;;
46411;SDS011;32113;42.012;24.870;2022-08-21T13:20:32;20.35;;;12.82;;
46411;SDS011;32113;42.012;24.870;2022-08-21T13:23:05;25.08;;;12.30;;
46411;SDS011;32113;42.012;24.870;2022-08-21T13:25:47;21.48;;;12.57;;
46411;SDS011;32113;42.012;24.870;2022-08-21T13:28:13;19.52;;;12.80;;
46411;SDS011;32113;42.012;24.870;2022-08-21T13:30:50;21.63;;;13.25;;
46411;SDS011;32113;42.012;24.870;2022-08-21T13:33:19;24.67;;;12.70;;
46411;SDS011;32113;42.012;24.870;2022-08-21T13:38:25;23.33;;;12.57;;
46411;SDS011;32113;42.012;24.870;2022-08-21T13:43:56;18.67;;;11.73;;
46411;SDS011;32113;42.012;24.870;2022-08-21T13:46:26;24.30;;;12.88;;
46411;SDS011;32113;42.012;24.870;2022-08-21T13:48:55;24.42;;;13.48;;
46411;SDS011;32113;42.012;24.870;2022-08-21T13:51:21;18.30;;;13.07;;
46411;SDS011;32113;42.012;24.870;2022-08-21T13:53:48;28.73;;;13.98;;
46411;SDS011;32113;42.012;24.870;2022-08-21T13:56:25;21.48;;;12.65;;
46411;SDS011;32113;42.012;24.870;2022-08-21T13:58:53;18.42;;;13.35;;
46411;SDS011;32113;42.012;24.870;2022-08-21T14:01:21;24.40;;;12.82;;
46411;SDS011;32113;42.012;24.870;2022-08-21T14:04:08;24.52;;;13.30;;
46411;SDS011;32113;42.012;24.870;2022-08-21T14:06:44;20.58;;;13.43;;
46411;SDS011;32113;42.012;24.870;2022-08-21T14:09:12;23.58;;;13.00;;
46411;SDS011;32113;42.012;24.870;2022-08-21T14:11:47;22.40;;;14.02;;
46411;SDS011;32113;42.012;24.870;2022-08-21T14:16:52;24.85;;;14.95;;
46411;SDS011;32113;42.012;24.870;2022-08-21T14:19:22;23.77;;;13.23;;
46411;SDS011;32113;42.012;24.870;2022-08-21T14:21:50;24.15;;;13.45;;
46411;SDS011;32113;42.012;24.870;2022-08-21T14:27:04;19.10;;;12.80;;
46411;SDS011;32113;42.012;24.870;2022-08-21T14:29:36;22.98;;;13.23;;
46411;SDS011;32113;42.012;24.870;2022-08-21T14:32:12;26.90;;;12.75;;
46411;SDS011;32113;42.012;24.870;2022-08-21T14:34:41;20.42;;;12.75;;
46411;SDS011;32113;42.012;24.870;2022-08-21T14:37:06;17.33;;;12.35;;
46411;SDS011;32113;42.012;24.870;2022-08-21T14:39:32;17.83;;;10.93;;
46411;SDS011;32113;42.012;24.870;2022-08-21T14:41:57;16.50;;;10.90;;
46411;SDS011;32113;42.012;24.870;2022-08-21T14:44:24;17.63;;;10.23;;
46411;SDS011;32113;42.012;24.870;2022-08-21T14:46:50;15.48;;;9.18;;
46411;SDS011;32113;42.012;24.870;2022-08-21T14:49:15;15.95;;;9.15;;
46411;SDS011;32113;42.012;24.870;2022-08-21T14:51:41;20.35;;;9.20;;
46411;SDS011;32113;42.012;24.870;2022-08-21T14:54:06;16.20;;;8.90;;
46411;SDS011;32113;42.012;24.870;2022-08-21T14:56:32;14.35;;;8.68;;
46411;SDS011;32113;42.012;24.870;2022-08-21T14:59:01;17.40;;;9.65;;
46411;SDS011;32113;42.012;24.870;2022-08-21T15:01:30;13.80;;;9.38;;
46411;SDS011;32113;42.012;24.870;2022-08-21T15:03:58;17.92;;;8.40;;
46411;SDS011;32113;42.012;24.870;2022-08-21T15:06:23;12.32;;;8.23;;
46411;SDS011;32113;42.012;24.870;2022-08-21T15:08:48;13.57;;;8.63;;
46411;SDS011;32113;42.012;24.870;2022-08-21T15:11:23;13.88;;;9.10;;
46411;SDS011;32113;42.012;24.870;2022-08-21T15:13:53;29.63;;;10.03;;
46411;SDS011;32113;42.012;24.870;2022-08-21T15:16:21;11.48;;;8.75;;
46411;SDS011;32113;42.012;24.870;2022-08-21T15:18:47;12.57;;;8.35;;
46411;SDS011;32113;42.012;24.870;2022-08-21T15:21:13;14.27;;;9.15;;
46411;SDS011;32113;42.012;24.870;2022-08-21T15:23:38;14.52;;;9.13;;
46411;SDS011;32113;42.012;24.870;2022-08-21T15:26:04;15.43;;;9.75;;
46411;SDS011;32113;42.012;24.870;2022-08-21T15:28:30;18.95;;;9.18;;
46411;SDS011;32113;42.012;24.870;2022-08-21T15:30:55;14.23;;;9.10;;
46411;SDS011;32113;42.012;24.870;2022-08-21T15:33:21;15.40;;;8.63;;
46411;SDS011;32113;42.012;24.870;2022-08-21T15:35:46;15.73;;;8.80;;
46411;SDS011;32113;42.012;24.870;2022-08-21T15:38:13;17.33;;;9.30;;
46411;SDS011;32113;42.012;24.870;2022-08-21T15:40:39;13.88;;;9.15;;
46411;SDS011;32113;42.012;24.870;2022-08-21T15:43:07;14.30;;;9.60;;
46411;SDS011;32113;42.012;24.870;2022-08-21T15:45:41;21.63;;;10.88;;
46411;SDS011;32113;42.012;24.870;2022-08-21T15:48:06;17.45;;;10.80;;
46411;SDS011;32113;42.012;24.870;2022-08-21T15:50:31;18.33;;;9.23;;
46411;SDS011;32113;42.012;24.870;2022-08-21T15:52:57;19.08;;;8.35;;
46411;SDS011;32113;42.012;24.870;2022-08-21T15:55:22;17.65;;;8.93;;
46411;SDS011;32113;42.012;24.870;2022-08-21T15:57:49;13.63;;;8.20;;
46411;SDS011;32113;42.012;24.870;2022-08-21T16:00:18;15.60;;;7.68;;
46411;SDS011;32113;42.012;24.870;2022-08-21T16:02:49;15.45;;;8.48;;
46411;SDS011;32113;42.012;24.870;2022-08-21T16:05:18;11.75;;;7.53;;
46411;SDS011;32113;42.012;24.870;2022-08-21T16:07:44;11.73;;;8.15;;
46411;SDS011;32113;42.012;24.870;2022-08-21T16:10:12;9.05;;;7.20;;
46411;SDS011;32113;42.012;24.870;2022-08-21T16:12:43;13.00;;;7.40;;
46411;SDS011;32113;42.012;24.870;2022-08-21T16:15:13;15.25;;;7.85;;
46411;SDS011;32113;42.012;24.870;2022-08-21T16:17:40;12.38;;;7.32;;
46411;SDS011;32113;42.012;24.870;2022-08-21T16:20:10;16.05;;;8.77;;
46411;SDS011;32113;42.012;24.870;2022-08-21T16:22:37;16.88;;;7.80;;